createdAt,value
2019-03-27T00:02:25.919Z,12.93
2019-03-27T00:04:56.121Z,3.95
2019-03-27T00:07:26.539Z,3.67
2019-03-27T00:09:56.639Z,6.60
2019-03-27T00:12:26.817Z,12.00
2019-03-27T00:14:56.931Z,10.70
2019-03-27T00:17:27.110Z,8.17
2019-03-27T00:19:57.230Z,8.27
2019-03-27T00:22:27.360Z,9.80
2019-03-27T00:24:57.469Z,11.20
2019-03-27T00:27:27.641Z,8.95
2019-03-27T00:29:57.811Z,10.00
2019-03-27T00:32:27.961Z,7.70
2019-03-27T00:34:58.158Z,9.33
2019-03-27T00:37:28.276Z,6.30
2019-03-27T00:39:58.367Z,5.07
2019-03-27T00:42:28.464Z,7.63
2019-03-27T00:44:58.603Z,5.00
2019-03-27T00:47:28.749Z,12.27
2019-03-27T00:49:58.925Z,12.63
2019-03-27T00:52:29.060Z,10.40
2019-03-27T00:54:59.260Z,9.73
2019-03-27T00:57:29.391Z,11.33
2019-03-27T00:59:59.557Z,5.87
2019-03-27T01:02:29.791Z,4.23
2019-03-27T01:04:59.890Z,9.30
2019-03-27T01:07:30.949Z,4.87
2019-03-27T01:10:01.171Z,4.03
2019-03-27T01:12:31.361Z,5.77
2019-03-27T01:15:01.440Z,8.47
2019-03-27T01:17:31.591Z,6.85
2019-03-27T01:20:02.775Z,6.05
2019-03-27T01:22:32.901Z,4.27
2019-03-27T01:25:03.011Z,4.13
2019-03-27T01:27:35.640Z,4.70
2019-03-27T01:30:05.726Z,4.87
2019-03-27T01:32:35.847Z,7.92
2019-03-27T01:35:06.122Z,9.28
2019-03-27T01:37:36.288Z,4.70
2019-03-27T01:40:06.921Z,9.20
2019-03-27T01:42:37.098Z,7.20
2019-03-27T01:45:08.339Z,3.67
2019-03-27T01:47:38.417Z,5.63
2019-03-27T01:50:10.265Z,7.20
2019-03-27T01:52:40.348Z,5.90
2019-03-27T01:55:10.557Z,7.12
2019-03-27T01:57:40.651Z,5.90
2019-03-27T02:00:10.857Z,10.15
2019-03-27T02:02:41.232Z,6.50
2019-03-27T02:05:12.935Z,7.30
2019-03-27T02:07:43.050Z,7.30
2019-03-27T02:10:13.703Z,6.90
2019-03-27T02:12:43.770Z,7.63
2019-03-27T02:15:14.970Z,7.63
2019-03-27T02:17:45.104Z,4.00
2019-03-27T02:20:15.473Z,7.05
2019-03-27T02:22:45.573Z,5.58
2019-03-27T02:25:15.752Z,11.78
2019-03-27T02:27:45.830Z,8.28
2019-03-27T02:30:16.009Z,4.20
2019-03-27T02:32:46.187Z,10.98
2019-03-27T02:35:16.252Z,15.83
2019-03-27T02:37:46.310Z,11.30
2019-03-27T02:40:16.499Z,6.83
2019-03-27T02:42:46.574Z,8.78
2019-03-27T02:45:16.769Z,10.18
2019-03-27T02:47:46.814Z,5.70
2019-03-27T02:50:16.987Z,8.47
2019-03-27T02:52:47.125Z,12.40
2019-03-27T02:55:17.196Z,12.53
2019-03-27T02:57:47.286Z,7.28
2019-03-27T03:00:18.240Z,8.30
2019-03-27T03:02:48.370Z,13.33
2019-03-27T03:05:18.611Z,8.50
2019-03-27T03:07:48.818Z,5.17
2019-03-27T03:10:19.263Z,8.60
2019-03-27T03:12:49.441Z,9.90
2019-03-27T03:15:24.167Z,8.45
2019-03-27T03:17:54.365Z,10.53
2019-03-27T03:20:24.629Z,8.40
2019-03-27T03:22:54.721Z,5.72
2019-03-27T03:25:24.950Z,9.93
2019-03-27T03:27:56.201Z,7.67
2019-03-27T03:30:26.298Z,9.50
2019-03-27T03:32:56.373Z,7.93
2019-03-27T03:35:26.542Z,15.68
2019-03-27T03:37:56.603Z,11.83
2019-03-27T03:40:27.868Z,13.17
2019-03-27T03:42:57.942Z,8.90
2019-03-27T03:45:28.031Z,11.57
2019-03-27T03:47:58.163Z,8.75
2019-03-27T03:50:40.781Z,15.85
2019-03-27T03:53:13.267Z,12.47
2019-03-27T03:55:43.564Z,13.68
2019-03-27T03:58:15.575Z,18.97
2019-03-27T04:00:46.290Z,13.15
2019-03-27T04:03:16.534Z,13.40
2019-03-27T04:05:46.614Z,8.65
2019-03-27T04:08:16.789Z,14.57
2019-03-27T04:10:46.896Z,14.20
2019-03-27T04:13:16.948Z,9.05
2019-03-27T04:15:47.045Z,8.17
2019-03-27T04:18:17.235Z,13.23
2019-03-27T04:20:47.307Z,18.87
2019-03-27T04:23:17.418Z,11.94
2019-03-27T04:26:08.049Z,17.77
2019-03-27T04:28:19.249Z,12.40
2019-03-27T04:30:49.381Z,14.15
2019-03-27T04:33:19.461Z,11.07
2019-03-27T04:35:49.545Z,8.70
2019-03-27T04:38:19.592Z,14.98
2019-03-27T04:40:49.685Z,16.73
2019-03-27T04:43:19.789Z,15.83
2019-03-27T04:45:49.847Z,18.63
2019-03-27T04:48:20.111Z,18.73
2019-03-27T04:50:50.313Z,16.83
2019-03-27T04:53:20.404Z,19.02
2019-03-27T04:55:50.660Z,19.80
2019-03-27T04:58:20.803Z,15.53
2019-03-27T05:00:50.966Z,18.67
2019-03-27T05:03:22.067Z,23.40
2019-03-27T05:05:52.227Z,26.27
2019-03-27T05:08:22.279Z,23.67
2019-03-27T05:10:52.338Z,24.53
2019-03-27T05:13:22.435Z,20.20
2019-03-27T05:15:52.507Z,26.83
2019-03-27T05:18:22.558Z,26.35
2019-03-27T05:20:52.657Z,30.90
2019-03-27T05:23:22.751Z,26.97
2019-03-27T05:25:52.852Z,26.63
2019-03-27T05:28:22.911Z,26.67
2019-03-27T05:30:52.997Z,29.63
2019-03-27T05:33:23.026Z,25.03
2019-03-27T05:35:53.194Z,37.07
2019-03-27T05:38:23.234Z,24.43
2019-03-27T05:40:53.356Z,27.60
2019-03-27T05:43:23.405Z,24.07
2019-03-27T05:45:53.583Z,30.17
2019-03-27T05:48:23.649Z,29.65
2019-03-27T05:50:53.724Z,29.00
2019-03-27T05:53:23.769Z,17.70
2019-03-27T05:55:53.843Z,23.93
2019-03-27T05:58:23.893Z,22.97
2019-03-27T06:00:54.117Z,24.30
2019-03-27T06:03:24.192Z,22.37
2019-03-27T06:05:54.270Z,27.27
2019-03-27T06:08:24.469Z,23.33
2019-03-27T06:10:54.576Z,23.40
2019-03-27T06:13:24.676Z,25.02
2019-03-27T06:15:54.784Z,21.82
2019-03-27T06:18:24.918Z,26.68
2019-03-27T06:20:54.996Z,25.30
2019-03-27T06:23:26.218Z,24.47
2019-03-27T06:25:57.285Z,21.60
2019-03-27T06:28:28.539Z,28.03
2019-03-27T06:30:58.786Z,29.73
2019-03-27T06:33:28.928Z,28.50
2019-03-27T06:35:59.009Z,21.67
2019-03-27T06:38:29.102Z,23.33
2019-03-27T06:40:59.178Z,34.53
2019-03-27T06:43:29.377Z,33.27
2019-03-27T06:45:59.429Z,32.43
2019-03-27T06:48:29.513Z,32.23
2019-03-27T06:50:59.579Z,27.97
2019-03-27T06:53:29.651Z,27.13
2019-03-27T06:55:59.752Z,25.50
2019-03-27T06:58:29.878Z,21.90
2019-03-27T07:00:59.978Z,25.33
2019-03-27T07:03:30.860Z,28.07
2019-03-27T07:06:01.056Z,18.97
2019-03-27T07:08:31.132Z,23.83
2019-03-27T07:11:01.347Z,16.67
2019-03-27T07:13:31.589Z,23.03
2019-03-27T07:16:01.907Z,22.23
2019-03-27T07:18:39.937Z,17.67
2019-03-27T07:21:03.774Z,29.03
2019-03-27T07:23:33.905Z,23.60
2019-03-27T07:26:04.072Z,24.50
2019-03-27T07:28:34.193Z,16.23
2019-03-27T07:31:04.277Z,23.83
2019-03-27T07:33:34.402Z,28.70
2019-03-27T07:36:04.487Z,21.10
2019-03-27T07:38:34.557Z,21.27
2019-03-27T07:41:04.623Z,14.13
2019-03-27T07:43:34.716Z,33.97
2019-03-27T07:46:04.855Z,18.00
2019-03-27T07:48:35.013Z,18.87
2019-03-27T07:51:05.305Z,21.33
2019-03-27T07:53:35.426Z,16.93
2019-03-27T07:56:05.488Z,11.80
2019-03-27T07:58:35.559Z,16.23
2019-03-27T08:01:05.664Z,14.93
2019-03-27T08:03:35.748Z,12.43
2019-03-27T08:06:05.911Z,11.20
2019-03-27T08:08:35.977Z,9.30
2019-03-27T08:11:06.052Z,12.93
2019-03-27T08:13:36.117Z,12.63
2019-03-27T08:16:06.271Z,13.17
2019-03-27T08:18:37.248Z,18.20
2019-03-27T08:21:07.311Z,17.10
2019-03-27T08:23:37.368Z,16.07
2019-03-27T08:26:07.445Z,19.17
2019-03-27T08:28:37.493Z,11.13
2019-03-27T08:31:07.574Z,13.40
2019-03-27T08:33:38.548Z,10.03
2019-03-27T08:36:08.745Z,11.63
2019-03-27T08:38:38.963Z,9.83
2019-03-27T08:41:09.048Z,9.58
2019-03-27T08:43:39.157Z,12.13
2019-03-27T08:46:09.446Z,15.13
2019-03-27T08:48:39.648Z,11.83
2019-03-27T08:51:09.698Z,14.80
2019-03-27T08:53:39.747Z,10.00
2019-03-27T08:56:09.857Z,13.97
2019-03-27T08:58:40.019Z,10.90
2019-03-27T09:01:10.186Z,10.45
2019-03-27T09:03:40.241Z,10.10
2019-03-27T09:06:10.326Z,9.77
2019-03-27T09:08:40.492Z,7.83
2019-03-27T09:11:10.540Z,15.20
2019-03-27T09:13:40.598Z,12.40
2019-03-27T09:16:10.697Z,17.53
2019-03-27T09:18:40.741Z,9.53
2019-03-27T09:21:10.905Z,11.65
2019-03-27T09:23:40.996Z,13.90
2019-03-27T09:26:11.084Z,11.30
2019-03-27T09:28:41.140Z,17.57
2019-03-27T09:31:11.322Z,13.30
2019-03-27T09:33:41.450Z,14.77
2019-03-27T09:36:11.649Z,11.07
2019-03-27T09:38:41.884Z,10.23
2019-03-27T09:41:12.029Z,11.30
2019-03-27T09:43:42.108Z,8.87
2019-03-27T09:46:12.194Z,11.75
2019-03-27T09:48:42.302Z,9.10
2019-03-27T09:51:12.372Z,13.10
2019-03-27T09:53:42.436Z,10.43
2019-03-27T09:56:18.904Z,7.67
2019-03-27T09:58:44.285Z,10.23
2019-03-27T10:01:14.398Z,8.23
2019-03-27T10:03:44.446Z,8.07
2019-03-27T10:06:14.515Z,11.03
2019-03-27T10:08:44.572Z,8.07
2019-03-27T10:11:14.748Z,16.13
2019-03-27T10:13:44.975Z,6.03
2019-03-27T10:16:15.070Z,7.30
2019-03-27T10:18:47.500Z,4.87
2019-03-27T10:21:17.863Z,8.80
2019-03-27T10:23:47.900Z,9.17
2019-03-27T10:26:18.146Z,7.27
2019-03-27T10:28:48.201Z,8.20
2019-03-27T10:31:18.260Z,7.40
2019-03-27T10:33:48.328Z,5.30
2019-03-27T10:36:18.409Z,11.50
2019-03-27T10:38:48.499Z,9.30
2019-03-27T10:41:18.688Z,5.50
2019-03-27T10:43:48.758Z,4.50
2019-03-27T10:46:19.066Z,4.10
2019-03-27T10:48:52.813Z,6.10
2019-03-27T10:51:20.964Z,5.73
2019-03-27T10:53:51.196Z,8.33
2019-03-27T10:56:21.264Z,3.80
2019-03-27T10:58:51.325Z,6.30
2019-03-27T11:01:21.391Z,10.47
2019-03-27T11:03:51.468Z,5.83
2019-03-27T11:06:21.622Z,5.30
2019-03-27T11:08:51.695Z,6.17
2019-03-27T11:11:21.783Z,9.60
2019-03-27T11:13:51.970Z,6.90
2019-03-27T11:16:22.054Z,5.73
2019-03-27T11:18:52.174Z,6.80
2019-03-27T11:21:22.259Z,5.57
2019-03-27T11:23:52.404Z,4.80
2019-03-27T11:26:22.453Z,5.07
2019-03-27T11:28:53.688Z,4.90
2019-03-27T11:31:23.755Z,5.30
2019-03-27T11:33:53.847Z,6.90
2019-03-27T11:36:24.027Z,6.40
2019-03-27T11:38:54.583Z,7.97
2019-03-27T11:41:24.642Z,10.53
2019-03-27T11:43:55.350Z,15.55
2019-03-27T11:46:26.283Z,6.67
2019-03-27T11:48:56.332Z,7.93
2019-03-27T11:51:26.394Z,5.60
2019-03-27T11:53:56.452Z,5.80
2019-03-27T11:56:26.747Z,3.60
2019-03-27T11:58:56.798Z,3.70
2019-03-27T12:01:39.143Z,2.37
2019-03-27T12:03:58.723Z,2.13
2019-03-27T12:06:28.770Z,4.20
2019-03-27T12:08:58.850Z,3.10
2019-03-27T12:11:29.039Z,3.43
2019-03-27T12:13:59.105Z,7.87
2019-03-27T12:16:29.188Z,1.77
2019-03-27T12:18:59.290Z,3.70
2019-03-27T12:21:29.318Z,3.80
2019-03-27T12:23:59.487Z,3.33
2019-03-27T12:26:29.591Z,4.77
2019-03-27T12:28:59.735Z,2.37
2019-03-27T12:31:29.795Z,2.10
2019-03-27T12:33:59.914Z,2.70
2019-03-27T12:36:29.940Z,3.50
2019-03-27T12:39:00.847Z,3.03
2019-03-27T12:41:33.141Z,3.85
2019-03-27T12:44:03.316Z,5.17
2019-03-27T12:46:33.465Z,2.72
2019-03-27T12:49:03.622Z,7.40
2019-03-27T12:51:33.832Z,2.43
2019-03-27T12:54:03.917Z,3.95
2019-03-27T12:56:34.062Z,3.00
2019-03-27T12:59:04.259Z,5.07
2019-03-27T13:01:34.299Z,5.40
2019-03-27T13:04:04.507Z,5.83
2019-03-27T13:06:34.553Z,4.47
2019-03-27T13:09:06.991Z,5.90
2019-03-27T13:11:37.052Z,4.53
2019-03-27T13:14:07.178Z,3.20
2019-03-27T13:16:37.261Z,7.62
2019-03-27T13:19:07.539Z,4.83
2019-03-27T13:21:37.607Z,4.03
2019-03-27T13:24:07.718Z,3.50
2019-03-27T13:26:37.797Z,8.20
2019-03-27T13:29:08.018Z,3.77
2019-03-27T13:31:39.445Z,8.58
2019-03-27T13:34:09.664Z,4.47
2019-03-27T13:36:45.269Z,8.55
2019-03-27T13:39:16.159Z,8.45
2019-03-27T13:41:46.180Z,3.70
2019-03-27T13:44:16.377Z,4.40
2019-03-27T13:46:46.643Z,5.30
2019-03-27T13:49:16.791Z,7.00
2019-03-27T13:51:46.940Z,5.97
2019-03-27T13:54:16.997Z,4.17
2019-03-27T13:56:47.101Z,5.35
2019-03-27T13:59:17.428Z,4.70
2019-03-27T14:01:47.523Z,4.40
2019-03-27T14:04:17.599Z,7.30
2019-03-27T14:06:47.670Z,8.63
2019-03-27T14:09:17.914Z,6.40
2019-03-27T14:11:48.062Z,5.40
2019-03-27T14:14:19.453Z,5.15
2019-03-27T14:16:50.010Z,4.20
2019-03-27T14:19:20.093Z,5.27
2019-03-27T14:21:54.999Z,5.37
2019-03-27T14:24:22.067Z,6.30
2019-03-27T14:26:52.226Z,4.25
2019-03-27T14:29:22.268Z,5.70
2019-03-27T14:31:52.586Z,3.60
2019-03-27T14:34:22.800Z,3.87
2019-03-27T14:36:52.982Z,3.00
2019-03-27T14:39:23.089Z,7.53
2019-03-27T14:41:53.197Z,3.43
2019-03-27T14:44:24.278Z,3.20
2019-03-27T14:46:54.475Z,4.58
2019-03-27T14:49:24.654Z,4.87
2019-03-27T14:52:07.748Z,3.50
2019-03-27T14:54:27.630Z,6.35
2019-03-27T14:56:57.765Z,4.63
2019-03-27T14:59:28.081Z,8.10
2019-03-27T15:01:58.434Z,5.47
2019-03-27T15:04:28.614Z,5.33
2019-03-27T15:06:58.681Z,3.30
2019-03-27T15:09:28.904Z,4.50
2019-03-27T15:11:59.174Z,3.40
2019-03-27T15:14:29.495Z,4.20
2019-03-27T15:16:59.590Z,4.40
2019-03-27T15:19:29.781Z,3.50
2019-03-27T15:22:00.025Z,8.13
2019-03-27T15:24:30.840Z,13.33
2019-03-27T15:27:01.867Z,3.43
2019-03-27T15:29:32.003Z,4.75
2019-03-27T15:32:02.191Z,7.53
2019-03-27T15:34:32.359Z,6.90
2019-03-27T15:37:02.530Z,3.50
2019-03-27T15:39:33.152Z,8.03
2019-03-27T15:42:03.374Z,6.97
2019-03-27T15:44:33.497Z,7.97
2019-03-27T15:47:03.657Z,8.30
2019-03-27T15:49:33.791Z,7.03
2019-03-27T15:52:04.416Z,8.05
2019-03-27T15:54:34.577Z,4.67
2019-03-27T15:57:04.721Z,6.23
2019-03-27T15:59:34.926Z,6.40
2019-03-27T16:02:05.561Z,7.33
2019-03-27T16:04:38.674Z,5.80
2019-03-27T16:07:07.634Z,6.67
2019-03-27T16:09:37.819Z,5.90
2019-03-27T16:12:08.003Z,6.90
2019-03-27T16:14:38.433Z,10.73
2019-03-27T16:17:13.524Z,4.57
2019-03-27T16:19:40.433Z,7.40
2019-03-27T16:22:10.587Z,6.77
2019-03-27T16:24:40.656Z,8.00
2019-03-27T16:27:10.906Z,6.50
2019-03-27T16:29:41.084Z,6.72
2019-03-27T16:32:11.245Z,5.83
2019-03-27T16:34:41.455Z,6.13
2019-03-27T16:37:11.801Z,6.00
2019-03-27T16:39:42.673Z,5.67
2019-03-27T16:42:13.870Z,6.90
2019-03-27T16:44:45.023Z,11.35
2019-03-27T16:47:15.346Z,5.70
2019-03-27T16:49:45.540Z,7.20
2019-03-27T16:52:15.710Z,3.93
2019-03-27T16:54:46.119Z,5.57
2019-03-27T16:57:16.190Z,5.70
2019-03-27T16:59:46.304Z,4.83
2019-03-27T17:02:16.514Z,6.27
2019-03-27T17:04:46.803Z,6.97
2019-03-27T17:07:16.874Z,4.80
2019-03-27T17:09:47.028Z,3.93
2019-03-27T17:12:17.087Z,4.80
2019-03-27T17:14:48.227Z,7.93
2019-03-27T17:17:18.326Z,6.63
2019-03-27T17:19:48.496Z,8.30
2019-03-27T17:22:19.910Z,5.80
2019-03-27T17:24:50.345Z,5.90
2019-03-27T17:27:21.170Z,5.42
2019-03-27T17:29:51.380Z,4.30
2019-03-27T17:32:21.680Z,7.40
2019-03-27T17:34:54.108Z,6.97
2019-03-27T17:37:24.200Z,5.20
2019-03-27T17:39:54.926Z,4.60
2019-03-27T17:42:25.205Z,5.83
2019-03-27T17:44:55.339Z,9.17
2019-03-27T17:47:25.510Z,5.67
2019-03-27T17:49:55.638Z,7.73
2019-03-27T17:52:25.949Z,8.70
2019-03-27T17:54:56.068Z,6.37
2019-03-27T17:57:26.221Z,6.67
2019-03-27T17:59:57.527Z,8.83
2019-03-27T18:02:27.599Z,4.80
2019-03-27T18:04:57.765Z,7.50
2019-03-27T18:07:27.938Z,13.70
2019-03-27T18:09:58.168Z,6.03
2019-03-27T18:12:28.220Z,7.33
2019-03-27T18:14:58.428Z,8.37
2019-03-27T18:17:28.634Z,7.13
2019-03-27T18:19:58.808Z,5.60
2019-03-27T18:22:28.937Z,6.93
2019-03-27T18:24:59.029Z,6.40
2019-03-27T18:27:31.919Z,8.73
2019-03-27T18:30:02.140Z,8.03
2019-03-27T18:32:33.056Z,8.30
2019-03-27T18:35:06.261Z,6.13
2019-03-27T18:37:36.321Z,5.97
2019-03-27T18:40:10.876Z,4.95
2019-03-27T18:42:41.142Z,4.20
2019-03-27T18:45:11.262Z,4.40
2019-03-27T18:47:41.429Z,8.58
2019-03-27T18:50:13.400Z,8.35
2019-03-27T18:52:43.641Z,6.37
2019-03-27T18:55:25.710Z,5.53
2019-03-27T18:57:58.992Z,8.87
2019-03-27T19:00:20.225Z,3.80
2019-03-27T19:02:50.416Z,4.05
2019-03-27T19:05:21.558Z,5.67
2019-03-27T19:07:51.737Z,8.95
2019-03-27T19:10:21.877Z,5.30
2019-03-27T19:12:52.061Z,6.07
2019-03-27T19:15:26.896Z,9.58
2019-03-27T19:17:57.035Z,12.78
2019-03-27T19:20:27.188Z,4.47
2019-03-27T19:22:57.414Z,9.60
2019-03-27T19:25:27.529Z,5.80
2019-03-27T19:27:57.649Z,7.13
2019-03-27T19:30:27.792Z,7.27
2019-03-27T19:32:57.982Z,6.30
2019-03-27T19:35:28.158Z,7.80
2019-03-27T19:37:58.253Z,9.68
2019-03-27T19:40:31.476Z,6.87
2019-03-27T19:43:02.637Z,8.60
2019-03-27T19:45:32.777Z,10.13
2019-03-27T19:48:03.006Z,9.40
2019-03-27T19:50:35.687Z,12.53
2019-03-27T19:53:09.270Z,13.30
2019-03-27T19:55:39.492Z,11.00
2019-03-27T19:58:09.652Z,12.83
2019-03-27T20:00:41.164Z,9.47
2019-03-27T20:03:11.318Z,7.83
2019-03-27T20:05:41.597Z,9.67
2019-03-27T20:08:14.211Z,7.00
2019-03-27T20:10:44.483Z,11.03
2019-03-27T20:13:14.693Z,10.27
2019-03-27T20:15:45.077Z,9.30
2019-03-27T20:18:15.321Z,6.77
2019-03-27T20:20:46.436Z,7.33
2019-03-27T20:23:17.084Z,12.00
2019-03-27T20:25:47.275Z,7.03
2019-03-27T20:28:17.675Z,9.13
2019-03-27T20:30:47.957Z,8.47
2019-03-27T20:33:18.088Z,8.00
2019-03-27T20:35:48.286Z,7.83
2019-03-27T20:38:18.473Z,7.75
2019-03-27T20:40:48.619Z,8.73
2019-03-27T20:43:19.292Z,13.00
2019-03-27T20:45:49.419Z,12.53
2019-03-27T20:48:19.765Z,13.27
2019-03-27T20:50:49.989Z,11.53
2019-03-27T20:53:20.172Z,11.03
2019-03-27T20:55:51.641Z,11.75
2019-03-27T20:58:21.736Z,12.93
2019-03-27T21:00:53.473Z,10.63
2019-03-27T21:03:26.052Z,10.53
2019-03-27T21:05:56.237Z,11.27
2019-03-27T21:08:26.378Z,10.57
2019-03-27T21:10:56.611Z,11.95
2019-03-27T21:13:26.753Z,14.70
2019-03-27T21:15:56.839Z,9.53
2019-03-27T21:18:27.066Z,12.63
2019-03-27T21:20:57.105Z,14.40
2019-03-27T21:23:27.172Z,9.23
2019-03-27T21:25:57.255Z,14.77
2019-03-27T21:28:27.430Z,11.57
2019-03-27T21:30:57.584Z,10.80
2019-03-27T21:33:27.715Z,9.08
2019-03-27T21:35:57.904Z,12.97
2019-03-27T21:38:28.006Z,12.20
2019-03-27T21:40:58.078Z,13.23
2019-03-27T21:43:28.252Z,15.93
2019-03-27T21:45:58.366Z,8.77
2019-03-27T21:48:28.482Z,13.03
2019-03-27T21:50:58.699Z,7.87
2019-03-27T21:53:28.767Z,10.38
2019-03-27T21:55:58.834Z,10.37
2019-03-27T21:58:29.079Z,13.00
2019-03-27T22:00:59.505Z,11.60
2019-03-27T22:03:29.699Z,10.27
2019-03-27T22:05:59.928Z,11.00
2019-03-27T22:08:30.545Z,11.90
2019-03-27T22:11:00.729Z,11.70
2019-03-27T22:13:30.840Z,14.20
2019-03-27T22:16:02.017Z,11.10
2019-03-27T22:18:32.164Z,16.33
2019-03-27T22:21:03.524Z,10.70
2019-03-27T22:23:33.624Z,12.80
2019-03-27T22:26:03.717Z,10.67
2019-03-27T22:28:33.834Z,9.70
2019-03-27T22:31:04.019Z,12.40
2019-03-27T22:33:34.189Z,15.40
2019-03-27T22:36:04.306Z,18.60
2019-03-27T22:38:34.472Z,10.63
2019-03-27T22:41:04.592Z,13.33
2019-03-27T22:43:34.810Z,11.80
2019-03-27T22:46:05.036Z,17.25
2019-03-27T22:48:35.110Z,14.83
2019-03-27T22:51:05.218Z,16.80
2019-03-27T22:53:35.215Z,14.67
2019-03-27T22:56:05.308Z,15.53
2019-03-27T22:58:35.443Z,16.13
2019-03-27T23:01:06.939Z,14.37
2019-03-27T23:03:38.828Z,14.20
2019-03-27T23:06:09.040Z,22.30
2019-03-27T23:08:39.261Z,14.73
2019-03-27T23:11:10.030Z,15.40
2019-03-27T23:13:40.347Z,13.50
2019-03-27T23:16:10.437Z,13.00
2019-03-27T23:18:40.649Z,15.33
2019-03-27T23:21:10.764Z,14.73
2019-03-27T23:23:40.922Z,18.93
2019-03-27T23:26:11.102Z,15.37
2019-03-27T23:28:41.467Z,13.20
2019-03-27T23:31:11.626Z,13.80
2019-03-27T23:33:41.761Z,14.30
2019-03-27T23:36:11.960Z,10.70
2019-03-27T23:38:42.139Z,13.40
2019-03-27T23:41:12.355Z,16.77
2019-03-27T23:43:42.443Z,12.27
2019-03-27T23:46:12.631Z,16.43
2019-03-27T23:48:42.722Z,15.17
2019-03-27T23:51:12.774Z,17.40
2019-03-27T23:53:42.837Z,13.93
2019-03-27T23:56:16.818Z,18.80
2019-03-27T23:58:44.850Z,16.95
